createdAt,value
2022-09-05T00:00:52.828Z,18.44
2022-09-05T00:03:30.429Z,18.44
2022-09-05T00:06:09.132Z,18.45
2022-09-05T00:09:04.472Z,18.44
2022-09-05T00:11:44.229Z,18.46
2022-09-05T00:15:17.432Z,18.47
2022-09-05T00:18:48.402Z,18.54
2022-09-05T00:24:26.946Z,18.57
2022-09-05T00:24:36.350Z,18.59
2022-09-05T00:27:27.045Z,18.45
2022-09-05T00:31:03.971Z,18.39
2022-09-05T00:33:16.598Z,18.37
2022-09-05T00:36:02.844Z,18.38
2022-09-05T00:38:37.091Z,18.24
2022-09-05T00:41:11.110Z,18.21
2022-09-05T00:43:42.512Z,18.14
2022-09-05T00:46:16.810Z,18.12
2022-09-05T00:48:56.291Z,18.14
2022-09-05T00:52:04.810Z,18.13
2022-09-05T00:55:12.817Z,18.17
2022-09-05T00:57:58.925Z,18.08
2022-09-05T01:00:44.434Z,18.03
2022-09-05T01:03:30.739Z,18.02
2022-09-05T01:06:17.760Z,17.93
2022-09-05T01:09:09.769Z,17.89
2022-09-05T01:12:00.979Z,17.97
2022-09-05T01:14:55.166Z,17.95
2022-09-05T01:17:37.350Z,17.74
2022-09-05T01:20:31.489Z,17.60
2022-09-05T01:23:25.330Z,17.55
2022-09-05T01:26:21.889Z,17.52
2022-09-05T01:29:18.053Z,17.44
2022-09-05T01:32:04.086Z,17.53
2022-09-05T01:34:48.906Z,17.50
2022-09-05T01:37:47.504Z,17.50
2022-09-05T01:41:01.188Z,17.42
2022-09-05T01:43:59.268Z,17.50
2022-09-05T01:46:35.049Z,17.46
2022-09-05T01:49:43.343Z,17.45
2022-09-05T01:52:26.189Z,17.40
2022-09-05T01:55:22.327Z,17.40
2022-09-05T01:57:54.521Z,17.45
2022-09-05T02:00:30.394Z,17.31
2022-09-05T02:03:18.683Z,17.33
2022-09-05T02:06:17.156Z,17.30
2022-09-05T02:08:54.862Z,17.34
2022-09-05T02:11:38.096Z,17.30
2022-09-05T02:14:24.390Z,17.26
2022-09-05T02:17:50.681Z,17.29
2022-09-05T02:20:45.818Z,17.24
2022-09-05T02:23:40.218Z,17.32
2022-09-05T02:26:17.951Z,17.21
2022-09-05T02:28:53.136Z,17.22
2022-09-05T02:31:40.301Z,17.21
2022-09-05T02:34:16.229Z,17.04
2022-09-05T02:36:49.507Z,16.96
2022-09-05T02:45:02.201Z,16.77
2022-09-05T02:45:13.248Z,16.75
2022-09-05T02:46:06.266Z,16.72
2022-09-05T02:48:53.758Z,16.70
2022-09-05T02:57:28.064Z,16.47
2022-09-05T02:57:35.916Z,16.30
2022-09-05T02:58:06.513Z,16.57
2022-09-05T03:00:37.904Z,16.59
2022-09-05T03:03:12.661Z,16.53
2022-09-05T03:05:48.643Z,16.38
2022-09-05T03:08:33.830Z,16.32
2022-09-05T03:11:43.301Z,16.40
2022-09-05T03:14:40.642Z,16.35
2022-09-05T03:17:34.290Z,16.38
2022-09-05T03:20:19.455Z,16.33
2022-09-05T03:23:21.105Z,16.44
2022-09-05T03:26:11.321Z,16.54
2022-09-05T03:29:18.131Z,16.40
2022-09-05T03:32:05.716Z,16.29
2022-09-05T03:34:56.040Z,16.25
2022-09-05T03:38:00.729Z,16.40
2022-09-05T03:40:57.719Z,16.44
2022-09-05T03:43:30.877Z,16.46
2022-09-05T03:46:22.971Z,16.34
2022-09-05T03:49:16.240Z,16.23
2022-09-05T03:57:07.879Z,16.18
2022-09-05T03:57:28.078Z,16.25
2022-09-05T03:59:01.984Z,16.22
2022-09-05T04:03:09.181Z,16.25
2022-09-05T04:08:17.303Z,16.23
2022-09-05T04:08:20.759Z,16.15
2022-09-05T04:11:06.174Z,16.17
2022-09-05T04:13:45.022Z,16.13
2022-09-05T04:16:19.421Z,16.22
2022-09-05T04:18:51.595Z,16.10
2022-09-05T04:21:29.123Z,15.98
2022-09-05T04:24:15.536Z,15.94
2022-09-05T04:27:20.810Z,15.98
2022-09-05T04:30:37.889Z,16.05
2022-09-05T04:33:36.023Z,16.11
2022-09-05T04:36:26.311Z,16.11
2022-09-05T04:39:17.516Z,16.20
2022-09-05T04:41:55.736Z,16.18
2022-09-05T04:44:41.238Z,16.08
2022-09-05T04:47:36.876Z,15.98
2022-09-05T04:50:08.526Z,16.00
2022-09-05T04:52:44.159Z,15.88
2022-09-05T04:55:17.431Z,15.91
2022-09-05T04:57:50.528Z,16.01
2022-09-05T05:06:01.272Z,16.05
2022-09-05T05:06:13.730Z,16.09
2022-09-05T05:06:37.984Z,16.00
2022-09-05T05:09:26.689Z,15.96
2022-09-05T05:17:56.049Z,16.15
2022-09-05T05:18:12.194Z,16.51
2022-09-05T05:18:14.077Z,16.35
2022-09-05T05:21:04.546Z,16.54
2022-09-05T05:23:36.303Z,16.45
2022-09-05T05:26:07.135Z,16.34
2022-09-05T05:28:58.060Z,16.51
2022-09-05T05:31:30.251Z,16.64
2022-09-05T05:34:10.957Z,16.68
2022-09-05T05:37:00.274Z,16.63
2022-09-05T05:39:29.610Z,16.83
2022-09-05T05:41:57.843Z,16.97
2022-09-05T05:44:32.595Z,16.94
2022-09-05T05:47:03.542Z,16.94
2022-09-05T05:50:11.903Z,16.92
2022-09-05T05:52:56.688Z,16.93
2022-09-05T05:55:51.200Z,17.05
2022-09-05T05:58:32.928Z,17.25
2022-09-05T06:01:38.567Z,17.40
2022-09-05T06:04:25.465Z,17.51
2022-09-05T06:07:03.683Z,17.55
2022-09-05T06:14:51.207Z,17.48
2022-09-05T06:15:01.328Z,17.41
2022-09-05T06:16:35.620Z,17.34
2022-09-05T06:20:05.337Z,17.46
2022-09-05T06:22:40.376Z,17.57
2022-09-05T06:25:27.890Z,17.69
2022-09-05T06:28:20.052Z,17.66
2022-09-05T06:31:29.252Z,17.75
2022-09-05T06:33:57.776Z,17.92
2022-09-05T06:36:52.094Z,17.94
2022-09-05T06:39:26.621Z,17.93
2022-09-05T06:42:06.894Z,18.02
2022-09-05T06:44:45.013Z,17.96
2022-09-05T06:47:33.393Z,17.82
2022-09-05T06:50:27.505Z,17.88
2022-09-05T06:53:21.033Z,17.89
2022-09-05T06:56:09.820Z,17.92
2022-09-05T06:59:17.929Z,17.82
2022-09-05T07:02:12.598Z,17.74
2022-09-05T07:05:24.739Z,17.63
2022-09-05T07:07:46.264Z,17.50
2022-09-05T07:10:38.815Z,17.54
2022-09-05T07:13:15.584Z,17.54
2022-09-05T07:15:56.752Z,17.67
2022-09-05T07:18:26.122Z,17.78
2022-09-05T07:21:26.619Z,17.92
2022-09-05T07:24:08.943Z,18.03
2022-09-05T07:26:53.790Z,18.07
2022-09-05T07:29:25.290Z,18.03
2022-09-05T07:31:55.895Z,18.06
2022-09-05T07:34:28.514Z,18.13
2022-09-05T07:37:13.875Z,18.17
2022-09-05T07:39:55.643Z,18.14
2022-09-05T07:42:31.645Z,18.16
2022-09-05T07:45:11.597Z,18.14
2022-09-05T07:48:00.177Z,18.41
2022-09-05T07:52:19.100Z,18.53
2022-09-05T07:56:51.981Z,18.82
2022-09-05T07:56:59.649Z,19.01
2022-09-05T07:58:53.941Z,19.23
2022-09-05T08:01:22.719Z,19.28
2022-09-05T08:03:55.988Z,19.23
2022-09-05T08:06:48.021Z,19.51
2022-09-05T08:10:05.402Z,19.71
2022-09-05T08:12:28.110Z,19.98
2022-09-05T08:15:22.780Z,20.09
2022-09-05T08:18:05.441Z,20.33
2022-09-05T08:20:55.132Z,20.83
2022-09-05T08:23:56.504Z,21.53
2022-09-05T08:26:44.132Z,22.32
2022-09-05T08:29:30.829Z,22.92
2022-09-05T08:32:13.348Z,23.17
2022-09-05T08:34:47.385Z,23.43
2022-09-05T08:37:21.553Z,23.47
2022-09-05T08:39:58.336Z,23.31
2022-09-05T08:43:49.579Z,23.25
2022-09-05T08:46:42.292Z,23.02
2022-09-05T08:49:37.046Z,22.99
2022-09-05T08:52:27.957Z,22.86
2022-09-05T08:55:18.934Z,23.06
2022-09-05T08:57:45.251Z,22.64
2022-09-05T09:00:20.467Z,22.65
2022-09-05T09:03:16.888Z,22.51
2022-09-05T09:06:14.382Z,22.51
2022-09-05T09:09:09.372Z,22.39
2022-09-05T09:11:50.395Z,22.63
2022-09-05T09:14:45.960Z,22.68
2022-09-05T09:17:43.502Z,22.74
2022-09-05T09:20:21.979Z,22.78
2022-09-05T09:23:00.719Z,22.82
2022-09-05T09:25:44.092Z,23.02
2022-09-05T09:28:49.914Z,22.94
2022-09-05T09:31:35.208Z,23.15
2022-09-05T09:34:33.035Z,23.38
2022-09-05T09:37:18.347Z,23.70
2022-09-05T09:40:13.549Z,24.09
2022-09-05T09:42:47.570Z,24.23
2022-09-05T09:45:45.640Z,24.43
2022-09-05T09:48:38.984Z,24.47
2022-09-05T09:51:35.778Z,24.36
2022-09-05T09:54:30.828Z,24.66
2022-09-05T09:57:24.886Z,24.65
2022-09-05T10:00:22.991Z,24.77
2022-09-05T10:10:28.166Z,24.76
2022-09-05T10:10:46.311Z,24.82
2022-09-05T10:11:09.345Z,24.92
2022-09-05T10:12:39.200Z,25.01
2022-09-05T10:15:32.383Z,25.15
2022-09-05T10:18:16.478Z,25.13
2022-09-05T10:21:15.201Z,24.95
2022-09-05T10:24:10.712Z,24.95
2022-09-05T10:27:02.205Z,25.03
2022-09-05T10:29:41.090Z,25.20
2022-09-05T10:35:10.889Z,25.42
2022-09-05T10:35:22.225Z,25.62
2022-09-05T10:38:11.337Z,25.67
2022-09-05T10:41:21.883Z,25.52
2022-09-05T10:43:33.618Z,25.26
2022-09-05T10:46:49.176Z,25.38
2022-09-05T10:49:13.324Z,25.52
2022-09-05T10:51:51.811Z,25.76
2022-09-05T10:54:41.772Z,25.92
2022-09-05T10:57:26.955Z,26.01
2022-09-05T11:02:18.999Z,26.03
2022-09-05T11:03:32.671Z,26.35
2022-09-05T11:06:09.431Z,26.48
2022-09-05T11:08:48.359Z,26.51
2022-09-05T11:11:28.317Z,26.44
2022-09-05T11:14:27.158Z,26.44
2022-09-05T11:17:00.928Z,26.48
2022-09-05T11:19:39.817Z,26.67
2022-09-05T11:22:22.060Z,26.72
2022-09-05T11:24:58.765Z,27.01
2022-09-05T11:27:36.992Z,27.25
2022-09-05T11:30:30.510Z,27.58
2022-09-05T11:39:52.577Z,27.90
2022-09-05T11:39:52.769Z,28.15
2022-09-05T11:40:00.000Z,28.11
2022-09-05T11:42:43.547Z,28.25
2022-09-05T11:45:34.993Z,28.23
2022-09-05T11:48:22.199Z,28.20
2022-09-05T11:51:33.945Z,28.14
2022-09-05T11:54:39.675Z,28.21
2022-09-05T11:57:33.518Z,28.11
2022-09-05T12:00:33.469Z,27.93
2022-09-05T12:03:57.802Z,27.93
2022-09-05T12:06:30.860Z,27.72
2022-09-05T12:09:00.252Z,27.40
2022-09-05T12:12:27.049Z,27.39
2022-09-05T12:15:22.799Z,27.27
2022-09-05T12:18:02.877Z,27.32
2022-09-05T12:20:43.485Z,27.51
2022-09-05T12:23:53.696Z,27.72
2022-09-05T12:27:40.302Z,27.69
2022-09-05T12:29:34.775Z,27.74
2022-09-05T12:33:45.549Z,27.63
2022-09-05T12:36:12.539Z,27.73
2022-09-05T12:40:45.050Z,27.56
2022-09-05T12:41:38.352Z,27.57
2022-09-05T12:44:39.736Z,27.70
2022-09-05T12:46:36.680Z,27.88
2022-09-05T12:49:17.979Z,28.03
2022-09-05T12:51:57.474Z,28.26
2022-09-05T12:54:34.686Z,28.30
2022-09-05T12:59:56.657Z,28.08
2022-09-05T13:03:06.705Z,28.16
2022-09-05T13:03:28.615Z,28.34
2022-09-05T13:06:08.661Z,28.47
2022-09-05T13:08:58.936Z,28.47
2022-09-05T13:14:48.156Z,28.39
2022-09-05T13:14:56.947Z,28.60
2022-09-05T13:17:13.835Z,28.72
2022-09-05T13:19:45.693Z,28.78
2022-09-05T13:22:16.376Z,28.99
2022-09-05T13:24:49.492Z,29.21
2022-09-05T13:27:27.923Z,29.18
2022-09-05T13:31:44.102Z,29.01
2022-09-05T13:38:11.851Z,29.03
2022-09-05T13:38:17.891Z,29.14
2022-09-05T13:38:48.771Z,29.16
2022-09-05T13:41:29.179Z,29.20
2022-09-05T13:44:00.232Z,29.38
2022-09-05T13:46:59.445Z,29.48
2022-09-05T13:49:37.032Z,29.44
2022-09-05T13:52:28.990Z,29.53
2022-09-05T13:55:09.873Z,29.62
2022-09-05T13:57:36.309Z,29.70
2022-09-05T14:00:08.685Z,29.87
2022-09-05T14:03:39.123Z,29.78
2022-09-05T14:06:51.266Z,29.95
2022-09-05T14:09:41.859Z,30.21
2022-09-05T14:12:29.325Z,30.40
2022-09-05T14:15:19.012Z,30.63
2022-09-05T14:18:21.058Z,30.73
2022-09-05T14:21:17.690Z,30.92
2022-09-05T14:23:55.941Z,31.05
2022-09-05T14:26:24.900Z,31.25
2022-09-05T14:29:06.251Z,31.15
2022-09-05T14:34:04.132Z,30.62
2022-09-05T14:37:48.278Z,30.08
2022-09-05T14:38:09.188Z,29.79
2022-09-05T14:40:59.783Z,29.58
2022-09-05T14:44:00.182Z,29.50
2022-09-05T14:46:28.328Z,29.37
2022-09-05T14:49:29.288Z,29.45
2022-09-05T14:51:58.453Z,29.52
2022-09-05T15:00:52.423Z,29.70
2022-09-05T15:02:48.385Z,29.78
2022-09-05T15:03:04.569Z,29.80
2022-09-05T15:05:31.840Z,29.88
2022-09-05T15:08:04.125Z,30.03
2022-09-05T15:12:18.121Z,30.14
2022-09-05T15:13:34.521Z,30.31
2022-09-05T15:16:09.605Z,30.31
2022-09-05T15:18:45.113Z,30.25
2022-09-05T15:21:30.654Z,30.37
2022-09-05T15:24:17.159Z,30.43
2022-09-05T15:26:52.646Z,30.19
2022-09-05T15:29:23.593Z,30.18
2022-09-05T15:31:53.274Z,29.84
2022-09-05T15:34:35.589Z,29.89
2022-09-05T15:37:22.408Z,29.79
2022-09-05T15:40:07.458Z,29.76
2022-09-05T15:42:50.696Z,29.95
2022-09-05T15:45:32.281Z,30.06
2022-09-05T15:48:21.386Z,30.03
2022-09-05T15:50:51.559Z,29.83
2022-09-05T15:53:37.114Z,30.01
2022-09-05T15:56:09.472Z,30.28
2022-09-05T15:58:53.761Z,29.85
2022-09-05T16:01:58.631Z,30.08
2022-09-05T16:10:30.983Z,30.10
2022-09-05T16:10:34.563Z,29.91
2022-09-05T16:10:47.207Z,29.85
2022-09-05T16:12:50.697Z,29.83
2022-09-05T16:19:00.185Z,29.81
2022-09-05T16:23:15.830Z,29.68
2022-09-05T16:23:34.735Z,29.51
2022-09-05T16:24:16.828Z,29.33
2022-09-05T16:26:48.750Z,29.29
2022-09-05T16:29:28.296Z,29.23
2022-09-05T16:32:09.178Z,29.27
2022-09-05T16:34:52.463Z,29.42
2022-09-05T16:37:26.212Z,29.39
2022-09-05T16:40:03.151Z,29.33
2022-09-05T16:42:59.905Z,29.31
2022-09-05T16:45:52.239Z,29.23
2022-09-05T16:48:33.508Z,29.12
2022-09-05T16:51:35.711Z,29.09
2022-09-05T16:54:19.919Z,29.05
2022-09-05T16:56:48.246Z,29.02
2022-09-05T16:59:19.993Z,28.95
2022-09-05T17:02:10.960Z,28.80
2022-09-05T17:05:04.096Z,28.78
2022-09-05T17:07:42.338Z,28.61
2022-09-05T17:10:21.604Z,28.56
2022-09-05T17:12:52.517Z,28.60
2022-09-05T17:15:26.222Z,28.62
2022-09-05T17:18:20.369Z,28.58
2022-09-05T17:20:52.023Z,28.56
2022-09-05T17:27:14.806Z,28.52
2022-09-05T17:29:49.902Z,28.50
2022-09-05T17:32:51.435Z,28.27
2022-09-05T17:35:42.347Z,28.17
2022-09-05T17:38:22.734Z,28.06
2022-09-05T17:41:15.897Z,28.01
2022-09-05T17:43:43.162Z,27.95
2022-09-05T17:46:15.118Z,27.87
2022-09-05T17:49:18.306Z,27.78
2022-09-05T17:51:52.352Z,27.68
2022-09-05T17:54:27.576Z,27.62
2022-09-05T17:56:54.056Z,27.54
2022-09-05T17:59:20.393Z,27.45
2022-09-05T18:02:02.110Z,27.34
2022-09-05T18:04:47.121Z,27.22
2022-09-05T18:07:19.481Z,27.01
2022-09-05T18:10:01.525Z,26.90
2022-09-05T18:13:13.869Z,26.82
2022-09-05T18:15:34.182Z,26.76
2022-09-05T18:18:03.892Z,26.74
2022-09-05T18:20:45.572Z,26.69
2022-09-05T18:23:37.392Z,26.60
2022-09-05T18:26:27.645Z,26.55
2022-09-05T18:29:14.701Z,26.48
2022-09-05T18:31:43.395Z,26.39
2022-09-05T18:34:13.638Z,26.31
2022-09-05T18:36:44.798Z,26.21
2022-09-05T18:39:23.428Z,26.14
2022-09-05T18:42:14.786Z,26.08
2022-09-05T18:44:45.115Z,25.94
2022-09-05T18:47:33.111Z,25.91
2022-09-05T18:50:24.908Z,25.85
2022-09-05T18:52:51.656Z,25.84
2022-09-05T18:56:13.986Z,25.79
2022-09-05T18:58:31.215Z,25.69
2022-09-05T19:01:54.862Z,25.55
2022-09-05T19:04:55.252Z,25.44
2022-09-05T19:07:29.838Z,25.38
2022-09-05T19:10:34.522Z,25.35
2022-09-05T19:13:15.494Z,25.25
2022-09-05T19:16:05.310Z,25.17
2022-09-05T19:19:11.193Z,25.10
2022-09-05T19:22:33.268Z,25.04
2022-09-05T19:24:47.138Z,25.02
2022-09-05T19:28:27.848Z,24.99
2022-09-05T19:36:51.020Z,24.89
2022-09-05T19:36:59.234Z,24.94
2022-09-05T19:37:10.142Z,24.93
2022-09-05T19:38:27.139Z,24.86
2022-09-05T19:47:26.278Z,24.82
2022-09-05T19:47:36.181Z,24.80
2022-09-05T19:47:48.647Z,24.79
2022-09-05T19:49:39.335Z,24.76
2022-09-05T19:52:16.315Z,24.75
2022-09-05T19:54:43.052Z,24.72
2022-09-05T19:57:19.595Z,24.67
2022-09-05T19:59:51.843Z,24.60
2022-09-05T20:02:35.145Z,24.47
2022-09-05T20:05:07.509Z,24.40
2022-09-05T20:07:48.044Z,24.31
2022-09-05T20:10:25.383Z,24.31
2022-09-05T20:12:52.157Z,24.29
2022-09-05T20:15:24.853Z,24.27
2022-09-05T20:17:53.818Z,24.24
2022-09-05T20:20:24.680Z,24.17
2022-09-05T20:23:05.615Z,24.09
2022-09-05T20:25:39.659Z,24.04
2022-09-05T20:28:15.812Z,23.98
2022-09-05T20:30:45.490Z,23.92
2022-09-05T20:33:45.825Z,23.88
2022-09-05T20:43:16.010Z,23.79
2022-09-05T20:43:16.801Z,23.68
2022-09-05T20:43:20.496Z,23.74
2022-09-05T20:44:51.692Z,23.63
2022-09-05T20:54:07.746Z,23.44
2022-09-05T20:54:08.220Z,23.51
2022-09-05T20:54:22.376Z,23.36
2022-09-05T20:56:06.579Z,23.33
2022-09-05T20:58:34.922Z,23.29
2022-09-05T21:01:22.859Z,23.25
2022-09-05T21:03:58.857Z,23.21
2022-09-05T21:06:33.295Z,23.10
2022-09-05T21:09:24.334Z,23.02
2022-09-05T21:11:52.724Z,22.95
2022-09-05T21:14:21.323Z,22.83
2022-09-05T21:16:57.311Z,22.75
2022-09-05T21:19:27.747Z,22.70
2022-09-05T21:22:06.609Z,22.70
2022-09-05T21:24:33.651Z,22.65
2022-09-05T21:27:24.024Z,22.63
2022-09-05T21:29:59.048Z,22.53
2022-09-05T21:32:41.258Z,22.44
2022-09-05T21:35:33.848Z,22.39
2022-09-05T21:37:56.627Z,22.35
2022-09-05T21:40:23.410Z,22.33
2022-09-05T21:46:07.242Z,22.31
2022-09-05T21:47:41.522Z,22.31
2022-09-05T21:48:24.125Z,22.27
2022-09-05T21:50:55.699Z,22.22
2022-09-05T21:57:01.766Z,22.21
2022-09-05T21:59:26.795Z,22.19
2022-09-05T21:59:46.152Z,22.18
2022-09-05T22:02:16.525Z,22.17
2022-09-05T22:04:43.505Z,22.15
2022-09-05T22:07:32.554Z,22.15
2022-09-05T22:10:04.210Z,22.06
2022-09-05T22:12:33.479Z,22.00
2022-09-05T22:15:26.685Z,21.93
2022-09-05T22:17:48.173Z,21.88
2022-09-05T22:20:18.029Z,21.82
2022-09-05T22:22:45.255Z,21.80
2022-09-05T22:25:29.987Z,21.80
2022-09-05T22:28:07.315Z,21.78
2022-09-05T22:30:35.756Z,21.74
2022-09-05T22:33:05.349Z,21.71
2022-09-05T22:35:36.131Z,21.66
2022-09-05T22:38:10.224Z,21.67
2022-09-05T22:40:39.099Z,21.65
2022-09-05T22:43:09.954Z,21.65
2022-09-05T22:45:39.220Z,21.64
2022-09-05T22:48:14.278Z,21.63
2022-09-05T22:50:42.267Z,21.63
2022-09-05T22:53:09.814Z,21.64
2022-09-05T22:55:39.515Z,21.62
2022-09-05T22:58:07.684Z,21.59
2022-09-05T23:00:34.680Z,21.53
2022-09-05T23:03:03.385Z,21.49
2022-09-05T23:05:29.976Z,21.40
2022-09-05T23:07:57.759Z,21.32
2022-09-05T23:10:24.440Z,21.27
2022-09-05T23:12:50.964Z,21.24
2022-09-05T23:15:17.596Z,21.25
2022-09-05T23:17:44.573Z,21.20
2022-09-05T23:20:11.212Z,21.17
2022-09-05T23:22:39.064Z,21.16
2022-09-05T23:25:05.918Z,21.14
2022-09-05T23:27:37.133Z,21.06
2022-09-05T23:30:05.641Z,21.02
2022-09-05T23:32:32.322Z,20.98
2022-09-05T23:34:58.802Z,20.99
2022-09-05T23:37:25.223Z,20.96
2022-09-05T23:39:51.738Z,20.90
2022-09-05T23:42:18.190Z,20.83
2022-09-05T23:44:44.725Z,20.82
2022-09-05T23:47:11.290Z,20.85
2022-09-05T23:49:37.679Z,20.82
2022-09-05T23:52:04.098Z,20.80
2022-09-05T23:54:30.569Z,20.79
2022-09-05T23:56:57.397Z,20.78
2022-09-05T23:59:23.834Z,20.75
